Time;durP1;ratioP1;P1;durP2;ratioP2;P2;SDS_P1;SDS_P2;PMS_P1;PMS_P2;Temp;Humidity;BMP_temperature;BMP_pressure;BME280_temperature;BME280_humidity;BME280_pressure;Samples;Min_cycle;Max_cycle;Signal;HPM_P1;HPM_P2
2023/06/24 00:00:00;;;;;;;21.77;6.30;;;;;;;16.90;100.00;101223.06;4947194;28;20257;-78
2023/06/24 00:02:27;;;;;;;1.25;1.00;;;;;;;16.93;100.00;101224.81;4957080;28;20232;-78
2023/06/24 00:04:54;;;;;;;18.30;5.28;;;;;;;16.84;100.00;101247.09;4944556;28;20229;-79
2023/06/24 00:07:22;;;;;;;2.30;1.65;;;;;;;16.75;100.00;101247.13;4976880;28;20233;-78
2023/06/24 00:09:49;;;;;;;14.43;4.50;;;;;;;16.59;100.00;101232.91;4964214;28;20229;-78
2023/06/24 00:12:18;;;;;;;1.63;1.30;;;;;;;16.49;100.00;101236.47;4959265;28;20233;-78
2023/06/24 00:14:46;;;;;;;3.85;1.73;;;;;;;16.42;100.00;101237.38;4968390;28;20232;-79
2023/06/24 00:17:13;;;;;;;1.02;0.90;;;;;;;16.55;100.00;101246.25;4964459;28;20228;-79
2023/06/24 00:19:40;;;;;;;1.77;1.30;;;;;;;16.81;100.00;101268.47;4966095;28;20271;-81
2023/06/24 00:22:07;;;;;;;7.65;2.83;;;;;;;16.87;100.00;101252.41;4955254;28;20241;-79
2023/06/24 00:24:34;;;;;;;1.52;1.35;;;;;;;16.97;100.00;101255.97;4962513;28;20232;-79
2023/06/24 00:27:00;;;;;;;16.08;4.97;;;;;;;16.93;100.00;101287.16;4966408;28;20228;-77
2023/06/24 00:29:27;;;;;;;1.70;1.00;;;;;;;16.84;100.00;101294.28;4979926;28;20243;-80
2023/06/24 00:31:54;;;;;;;19.90;7.30;;;;;;;16.83;100.00;101280.03;4955897;28;20229;-78
2023/06/24 00:34:21;;;;;;;2.00;1.38;;;;;;;16.77;100.00;101271.16;4949340;28;20229;-79
2023/06/24 00:36:48;;;;;;;7.50;2.67;;;;;;;16.78;100.00;101273.81;4946563;28;20231;-78
2023/06/24 00:39:14;;;;;;;1.65;1.08;;;;;;;16.84;100.00;101291.63;4960497;28;20232;-78
2023/06/24 00:41:41;;;;;;;1.48;0.98;;;;;;;16.89;100.00;101284.47;4969723;28;20240;-78
2023/06/24 00:44:08;;;;;;;1.52;1.15;;;;;;;16.72;100.00;101292.53;4947309;28;20234;-81
2023/06/24 00:46:35;;;;;;;2.42;1.83;;;;;;;16.72;100.00;101284.53;4964077;28;20223;-78
2023/06/24 00:49:02;;;;;;;19.42;6.38;;;;;;;16.68;100.00;101292.56;4943295;28;20236;-78
2023/06/24 00:51:31;;;;;;;1.42;0.98;;;;;;;16.56;100.00;101325.47;4968779;28;20244;-78
2023/06/24 00:53:58;;;;;;;15.10;4.70;;;;;;;16.22;100.00;101335.28;4972719;28;20315;-78
2023/06/24 00:56:28;;;;;;;2.05;1.23;;;;;;;16.16;100.00;101309.47;4973226;28;20224;-77
2023/06/24 00:58:55;;;;;;;16.45;5.82;;;;;;;16.26;100.00;101337.97;4960988;28;20230;-78
2023/06/24 01:01:23;;;;;;;1.17;0.98;;;;;;;16.23;100.00;101348.63;4949378;28;20229;-80
2023/06/24 01:03:50;;;;;;;4.80;2.15;;;;;;;16.11;100.00;101353.97;4943475;28;20231;-79
2023/06/24 01:06:17;;;;;;;1.70;1.23;;;;;;;16.09;100.00;101369.09;4976235;28;20275;-79
2023/06/24 01:08:50;;;;;;;1.05;0.80;;;;;;;16.12;100.00;101384.22;4962915;28;20232;-85
2023/06/24 01:11:17;;;;;;;2.17;1.30;;;;;;;16.06;100.00;101366.41;4968988;28;20722;-77
2023/06/24 01:13:44;;;;;;;2.10;1.42;;;;;;;16.07;100.00;101353.97;4978037;28;20231;-82
2023/06/24 01:16:20;;;;;;;3.20;1.63;;;;;;;16.12;100.00;101377.09;4969019;28;20240;-77
2023/06/24 01:18:50;;;;;;;9.20;2.97;;;;;;;16.08;100.00;101371.75;4965155;28;20229;-78
2023/06/24 01:21:26;;;;;;;3.05;2.08;;;;;;;16.01;100.00;101373.50;4946018;28;20376;-78
2023/06/24 01:23:52;;;;;;;20.05;5.30;;;;;;;15.77;100.00;101385.03;4974561;28;20228;-78
2023/06/24 01:26:30;;;;;;;3.78;1.73;;;;;;;15.80;100.00;101400.16;4973981;28;20236;-78
2023/06/24 01:29:14;;;;;;;27.35;6.93;;;;;;;15.80;100.00;101416.16;4955877;28;20236;-80
2023/06/24 01:32:06;;;;;;;6.57;2.83;;;;;;;16.02;100.00;101433.09;4965283;28;20235;-79
2023/06/24 01:34:55;;;;;;;5.45;2.53;;;;;;;15.90;100.00;101410.84;4953946;28;20225;-77
2023/06/24 01:37:25;;;;;;;3.38;1.65;;;;;;;15.77;100.00;101411.69;4947461;28;20225;-81
2023/06/24 01:40:20;;;;;;;8.18;3.33;;;;;;;15.90;100.00;101423.28;4949912;28;20229;-81
2023/06/24 01:42:48;;;;;;;5.25;2.47;;;;;;;16.01;100.00;101442.88;4942665;28;20368;-77
2023/06/24 01:45:19;;;;;;;4.28;2.28;;;;;;;16.05;100.00;101446.47;4927115;28;20701;-78
2023/06/24 01:47:48;;;;;;;2.25;1.45;;;;;;;15.99;100.00;101439.31;4960333;28;20220;-79
2023/06/24 01:50:16;;;;;;;3.47;1.77;;;;;;;15.81;100.00;101458.81;4954193;28;20264;-78
2023/06/24 01:52:45;;;;;;;6.35;2.85;;;;;;;15.76;100.00;101444.59;4956405;28;20252;-78
2023/06/24 01:55:15;;;;;;;2.45;1.50;;;;;;;15.79;100.00;101462.38;4927307;28;20240;-81
2023/06/24 01:57:43;;;;;;;3.72;2.58;;;;;;;15.79;100.00;101460.59;4939602;28;20230;-79
2023/06/24 02:00:11;;;;;;;4.72;2.42;;;;;;;15.86;100.00;101454.41;4951069;28;20239;-77
2023/06/24 02:02:38;;;;;;;2.78;1.40;;;;;;;15.63;100.00;101475.66;4954864;28;20225;-78
2023/06/24 02:05:05;;;;;;;4.97;2.47;;;;;;;15.46;100.00;101482.59;4962663;28;20305;-78
2023/06/24 02:07:33;;;;;;;5.28;2.88;;;;;;;15.35;100.00;101468.31;4966754;28;20232;-78
2023/06/24 02:10:00;;;;;;;10.40;4.00;;;;;;;15.37;100.00;101448.78;4949861;28;20240;-79
2023/06/24 02:12:27;;;;;;;3.47;1.90;;;;;;;15.63;100.00;101458.75;4960182;28;20240;-78
2023/06/24 02:14:55;;;;;;;6.60;2.80;;;;;;;15.68;100.00;101451.66;4945515;28;20236;-78
2023/06/24 02:17:24;;;;;;;1.83;1.13;;;;;;;15.42;100.00;101470.13;4954962;28;20229;-78
2023/06/24 02:19:52;;;;;;;7.05;3.00;;;;;;;15.53;100.00;101456.84;4952108;28;20349;-78
2023/06/24 02:22:19;;;;;;;1.88;1.20;;;;;;;15.64;100.00;101445.44;4948922;28;20232;-79
2023/06/24 02:24:48;;;;;;;1.90;1.27;;;;;;;15.64;100.00;101449.88;4945912;28;20227;-78
2023/06/24 02:27:16;;;;;;;2.03;1.40;;;;;;;15.54;100.00;101446.19;4938636;28;20235;-79
2023/06/24 02:29:42;;;;;;;2.80;1.55;;;;;;;15.16;100.00;101483.28;4971709;28;20233;-78
2023/06/24 02:32:09;;;;;;;1.50;1.10;;;;;;;15.08;100.00;101489.44;4969070;28;20233;-78
2023/06/24 02:34:36;;;;;;;5.30;2.70;;;;;;;15.13;100.00;101503.69;4950490;28;20723;-77
2023/06/24 02:37:03;;;;;;;5.57;2.28;;;;;;;15.29;100.00;101495.81;4969479;28;20258;-81
2023/06/24 02:39:30;;;;;;;2.28;1.45;;;;;;;15.41;100.00;101504.78;4960111;28;20677;-78
2023/06/24 02:41:57;;;;;;;8.02;3.55;;;;;;;15.11;100.00;101508.13;4946876;28;20310;-78
2023/06/24 02:44:24;;;;;;;3.05;1.55;;;;;;;15.07;100.00;101512.53;4970600;28;20302;-77
2023/06/24 02:46:51;;;;;;;5.97;2.85;;;;;;;15.03;100.00;101524.06;4962957;28;20243;-79
2023/06/24 02:49:18;;;;;;;3.65;1.95;;;;;;;14.73;100.00;101527.34;4969615;28;20229;-78
2023/06/24 02:51:44;;;;;;;2.78;1.55;;;;;;;14.64;100.00;101525.47;4955214;28;20237;-82
2023/06/24 02:54:12;;;;;;;5.68;2.72;;;;;;;14.54;100.00;101530.69;4950119;28;20540;-80
2023/06/24 02:56:41;;;;;;;3.38;1.73;;;;;;;14.55;100.00;101532.47;4966810;28;20298;-80
2023/06/24 02:59:09;;;;;;;4.60;2.20;;;;;;;14.56;100.00;101544.91;4944001;28;20243;-77
2023/06/24 03:01:38;;;;;;;5.35;2.58;;;;;;;14.48;100.00;101542.19;4958980;28;20235;-78
2023/06/24 03:04:05;;;;;;;4.70;2.15;;;;;;;14.55;100.00;101540.47;4959122;28;20245;-77
2023/06/24 03:06:32;;;;;;;3.28;1.65;;;;;;;14.82;100.00;101540.72;4955555;28;20284;-78
2023/06/24 03:08:59;;;;;;;8.65;3.60;;;;;;;14.69;100.00;101539.72;4951640;28;20614;-79
2023/06/24 03:11:27;;;;;;;2.70;1.73;;;;;;;14.74;100.00;101553.09;4960180;28;20260;-81
2023/06/24 03:13:54;;;;;;;9.32;3.67;;;;;;;14.85;100.00;101543.44;4958296;28;20249;-80
2023/06/24 03:16:21;;;;;;;1.83;1.25;;;;;;;14.65;100.00;101563.66;4965400;28;20229;-78
2023/06/24 03:18:48;;;;;;;3.15;1.85;;;;;;;14.57;100.00;101568.88;4952032;28;20221;-77
2023/06/24 03:21:14;;;;;;;4.78;3.20;;;;;;;14.57;100.00;101570.66;4962600;28;20233;-78
2023/06/24 03:23:41;;;;;;;2.30;1.40;;;;;;;14.73;100.00;101583.25;4967219;28;20232;-77
2023/06/24 03:26:08;;;;;;;3.83;1.70;;;;;;;14.83;100.00;101594.91;4973965;28;20237;-80
2023/06/24 03:28:35;;;;;;;3.38;2.08;;;;;;;14.79;100.00;101601.06;4969910;28;20243;-78
2023/06/24 03:31:01;;;;;;;3.65;2.13;;;;;;;14.78;100.00;101607.28;4976671;28;20255;-79
2023/06/24 03:33:28;;;;;;;1.63;1.10;;;;;;;14.81;100.00;101594.88;4962063;28;20287;-78
2023/06/24 03:35:55;;;;;;;6.57;2.97;;;;;;;14.70;100.00;101605.41;4965266;28;20239;-78
2023/06/24 03:38:22;;;;;;;2.25;1.27;;;;;;;14.56;100.00;101606.16;4970672;28;20240;-77
2023/06/24 03:40:48;;;;;;;4.30;2.13;;;;;;;14.62;100.00;101612.44;4968843;28;20239;-85
2023/06/24 03:43:15;;;;;;;2.67;1.55;;;;;;;14.74;100.00;101611.66;4983552;28;20229;-77
2023/06/24 03:45:42;;;;;;;1.50;1.00;;;;;;;14.90;100.00;101626.94;4979575;28;20224;-79
2023/06/24 03:48:09;;;;;;;2.38;1.65;;;;;;;14.87;100.00;101628.66;4966094;28;20303;-78
2023/06/24 03:50:36;;;;;;;3.25;1.70;;;;;;;14.86;100.00;101632.22;4968188;28;20228;-78
2023/06/24 03:53:04;;;;;;;6.75;2.63;;;;;;;14.73;100.00;101624.09;4962975;28;20232;-76
2023/06/24 03:55:30;;;;;;;3.15;1.92;;;;;;;14.78;100.00;101624.13;4974890;28;20229;-78
2023/06/24 03:57:58;;;;;;;6.65;3.15;;;;;;;14.78;100.00;101617.94;4976689;28;20242;-76
2023/06/24 04:00:25;;;;;;;3.88;1.85;;;;;;;14.88;100.00;101599.38;4966546;28;20233;-76
2023/06/24 04:02:53;;;;;;;5.45;2.63;;;;;;;14.95;100.00;101595.91;4958059;28;20229;-76
2023/06/24 04:05:20;;;;;;;3.05;1.77;;;;;;;14.96;100.00;101591.47;4977934;28;20228;-77
2023/06/24 04:07:47;;;;;;;2.95;1.63;;;;;;;14.89;100.00;101627.81;4971891;28;20715;-76
2023/06/24 04:10:14;;;;;;;1.63;1.20;;;;;;;14.87;100.00;101628.66;4970043;28;20241;-76
2023/06/24 04:12:40;;;;;;;2.58;1.65;;;;;;;14.87;100.00;101628.66;4971930;28;20240;-79
2023/06/24 04:15:08;;;;;;;2.92;1.90;;;;;;;14.86;100.00;101645.53;4964549;28;20233;-77
2023/06/24 04:17:35;;;;;;;2.80;1.50;;;;;;;14.80;100.00;101657.00;4966460;28;20236;-77
2023/06/24 04:20:08;;;;;;;8.23;3.38;;;;;;;14.79;100.00;101665.88;4938574;28;20272;-77
2023/06/24 04:22:41;;;;;;;2.60;1.40;;;;;;;14.92;100.00;101674.91;4957201;28;20299;-78
2023/06/24 04:25:08;;;;;;;4.10;2.13;;;;;;;14.99;100.00;101671.41;4973135;28;20243;-80
2023/06/24 04:27:35;;;;;;;3.28;1.63;;;;;;;14.95;100.00;101681.16;4981915;28;20320;-77
2023/06/24 04:30:03;;;;;;;10.52;4.15;;;;;;;15.10;100.00;101667.09;4966223;28;20565;-76
2023/06/24 04:32:30;;;;;;;3.75;1.90;;;;;;;15.17;100.00;101670.72;4974355;28;20264;-78
2023/06/24 04:35:00;;;;;;;8.30;3.67;;;;;;;15.19;100.00;101680.50;4965825;28;20233;-77
2023/06/24 04:37:27;;;;;;;3.15;1.65;;;;;;;15.32;100.00;101673.53;4963004;28;20236;-78
2023/06/24 04:39:54;;;;;;;5.97;2.78;;;;;;;15.33;100.00;101670.88;4954890;28;20309;-78
2023/06/24 04:42:22;;;;;;;3.83;2.10;;;;;;;15.33;100.00;101676.22;4964595;28;20233;-77
2023/06/24 04:44:52;;;;;;;6.50;2.83;;;;;;;15.49;100.00;101671.91;4961965;28;20240;-81
2023/06/24 04:47:19;;;;;;;2.03;1.25;;;;;;;15.64;100.00;101657.88;4979244;28;20228;-79
2023/06/24 04:49:46;;;;;;;2.70;1.50;;;;;;;15.62;100.00;101657.84;4970800;28;20263;-78
2023/06/24 04:52:13;;;;;;;3.45;1.90;;;;;;;15.70;100.00;101641.91;4969158;28;20236;-76
2023/06/24 04:54:40;;;;;;;3.85;2.00;;;;;;;15.83;100.00;101646.44;4974012;28;20311;-78
2023/06/24 04:57:08;;;;;;;4.63;2.05;;;;;;;15.87;100.00;101644.69;4975807;28;20236;-76
2023/06/24 04:59:38;;;;;;;3.03;1.63;;;;;;;15.94;100.00;101639.41;4970439;28;20252;-76
2023/06/24 05:02:04;;;;;;;6.07;2.80;;;;;;;15.96;100.00;101637.63;4973379;28;20249;-77
2023/06/24 05:04:31;;;;;;;4.10;1.92;;;;;;;15.96;100.00;101650.97;4960133;28;20320;-76
2023/06/24 05:06:58;;;;;;;8.50;3.50;;;;;;;16.11;100.00;101660.84;4962836;28;20225;-78
2023/06/24 05:09:25;;;;;;;3.15;1.58;;;;;;;16.21;100.00;101664.47;4958322;28;20229;-81
2023/06/24 05:11:52;;;;;;;15.20;4.95;;;;;;;16.34;100.00;101663.66;4952900;28;20239;-79
2023/06/24 05:14:19;;;;;;;3.05;1.88;;;;;;;16.50;100.00;101675.28;4966870;28;20235;-80
2023/06/24 05:16:46;;;;;;;4.72;2.17;;;;;;;16.64;100.00;101687.81;4953213;28;20237;-77
2023/06/24 05:19:12;;;;;;;3.15;1.67;;;;;;;16.72;100.00;101690.56;4957023;28;20287;-77
2023/06/24 05:21:39;;;;;;;2.97;1.50;;;;;;;16.80;100.00;101686.13;4972491;28;20224;-79
2023/06/24 05:24:06;;;;;;;12.18;3.53;;;;;;;16.97;100.00;101696.91;4960358;28;20234;-78
2023/06/24 05:26:33;;;;;;;3.85;2.00;;;;;;;17.05;100.00;101688.91;4972320;28;20221;-76
2023/06/24 05:29:00;;;;;;;18.80;4.63;;;;;;;17.20;100.00;101686.25;4965212;28;20236;-77
2023/06/24 05:31:26;;;;;;;2.47;1.45;;;;;;;17.22;100.00;101676.47;4980689;28;20233;-77
2023/06/24 05:33:53;;;;;;;18.35;5.10;;;;;;;17.32;100.00;101655.97;4964886;28;20236;-78
2023/06/24 05:36:20;;;;;;;2.63;1.33;;;;;;;17.46;100.00;101671.13;4965017;28;20592;-79
2023/06/24 05:38:48;;;;;;;7.97;2.55;;;;;;;17.56;100.00;101666.69;4960306;28;20225;-79
2023/06/24 05:41:15;;;;;;;2.55;1.30;;;;;;;17.74;100.00;101664.03;4971224;28;20314;-78
2023/06/24 05:43:43;;;;;;;3.03;1.45;;;;;;;17.73;100.00;101642.63;4968114;28;20324;-76
2023/06/24 05:46:10;;;;;;;2.10;1.13;;;;;;;17.95;100.00;101641.69;4946517;28;20228;-77
2023/06/24 05:48:37;;;;;;;3.60;2.05;;;;;;;17.96;100.00;101629.22;4938892;28;20225;-77
2023/06/24 05:51:03;;;;;;;3.97;1.80;;;;;;;17.88;100.00;101605.13;4968809;28;20237;-80
2023/06/24 05:53:30;;;;;;;2.38;1.30;;;;;;;18.03;100.00;101618.47;4972291;28;20243;-80
2023/06/24 05:55:57;;;;;;;4.75;2.17;;;;;;;18.38;100.00;101641.59;4953790;28;20226;-78
2023/06/24 05:58:23;;;;;;;2.03;1.17;;;;;;;18.25;100.00;101600.59;4973594;28;20231;-83
2023/06/24 06:00:50;;;;;;;3.42;1.60;;;;;;;18.64;100.00;101628.13;4914016;28;20288;-78
2023/06/24 06:03:17;;;;;;;3.13;1.67;;;;;;;18.75;100.00;101610.19;4923096;28;20604;-81
2023/06/24 06:05:44;;;;;;;2.08;1.35;;;;;;;18.61;100.00;101580.81;4942077;28;20233;-78
2023/06/24 06:08:10;;;;;;;1.60;0.98;;;;;;;18.88;100.00;101578.84;4964764;28;20319;-77
2023/06/24 06:10:37;;;;;;;3.03;1.67;;;;;;;18.81;100.00;101552.09;4951386;28;20240;-80
2023/06/24 06:13:04;;;;;;;4.68;1.80;;;;;;;19.01;100.00;101576.06;4948312;28;20235;-83
2023/06/24 06:15:30;;;;;;;2.20;1.20;;;;;;;19.08;100.00;101563.50;4959447;28;20225;-78
2023/06/24 06:17:58;;;;;;;18.52;5.05;;;;;;;19.20;100.00;101552.66;4967821;28;20267;-82
2023/06/24 06:20:25;;;;;;;2.70;1.50;;;;;;;19.39;100.00;101542.66;4946325;28;20696;-79
2023/06/24 06:22:51;;;;;;;17.83;6.15;;;;;;;19.45;100.00;101513.97;4947346;28;20260;-82
2023/06/24 06:25:18;;;;;;;2.05;1.45;;;;;;;19.68;100.00;101508.44;4963629;28;20225;-79
2023/06/24 06:27:45;;;;;;;2.30;1.30;;;;;;;19.65;100.00;101472.69;4967129;28;20241;-80
2023/06/24 06:30:13;;;;;;;1.70;1.10;;;;;;;19.68;100.00;101445.81;4955046;28;20241;-80
2023/06/24 06:32:40;;;;;;;2.20;1.30;;;;;;;19.93;100.00;101462.50;4963009;28;20315;-79
2023/06/24 06:35:08;;;;;;;8.52;2.85;;;;;;;20.15;100.00;101453.25;4953492;28;20266;-79
2023/06/24 06:37:34;;;;;;;1.60;1.10;;;;;;;20.01;100.00;101405.09;4955910;28;20697;-78
2023/06/24 06:40:02;;;;;;;30.90;9.77;;;;;;;20.26;100.00;101404.72;4950176;28;20237;-77
2023/06/24 06:42:29;;;;;;;2.10;1.48;;;;;;;20.56;100.00;101395.31;4965556;28;20223;-77
2023/06/24 06:44:56;;;;;;;24.48;6.93;;;;;;;20.57;100.00;101378.28;4942241;28;20247;-78
2023/06/24 06:47:23;;;;;;;1.90;1.30;;;;;;;20.83;100.00;101423.56;4973269;28;20238;-78
2023/06/24 06:49:50;;;;;;;14.45;5.57;;;;;;;20.98;100.00;101391.91;4957530;28;20239;-79
2023/06/24 06:52:17;;;;;;;1.65;1.00;;;;;;;21.06;100.00;101364.88;4973281;28;20252;-78
2023/06/24 06:54:43;;;;;;;2.92;1.70;;;;;;;21.24;100.00;101359.16;4977338;28;20606;-78
2023/06/24 06:57:10;;;;;;;2.10;1.30;;;;;;;21.53;100.00;101352.28;4972903;28;20235;-80
2023/06/24 06:59:37;;;;;;;1.75;1.05;;;;;;;22.04;100.00;101332.28;4953861;28;20225;-78
2023/06/24 07:02:04;;;;;;;11.60;3.30;;;;;;;21.53;100.00;101267.03;4964182;28;20686;-78
2023/06/24 07:04:31;;;;;;;2.22;1.55;;;;;;;21.88;100.00;101298.50;4962695;28;20224;-78
2023/06/24 07:06:58;;;;;;;17.90;7.75;;;;;;;21.68;100.00;101215.53;4966582;28;20239;-79
2023/06/24 07:09:24;;;;;;;1.73;1.10;;;;;;;22.32;100.00;101267.84;4970589;28;20224;-79
2023/06/24 07:11:51;;;;;;;22.20;8.18;;;;;;;22.18;100.00;101223.31;4953062;28;20223;-80
2023/06/24 07:14:18;;;;;;;1.83;1.10;;;;;;;22.62;100.00;101255.34;4959816;28;20254;-78
2023/06/24 07:16:45;;;;;;;2.67;1.75;;;;;;;22.71;100.00;101212.88;4954380;28;20224;-82
2023/06/24 07:19:12;;;;;;;1.00;0.75;;;;;;;23.01;100.00;101241.69;4981883;28;20310;-82
2023/06/24 07:21:39;;;;;;;5.60;2.40;;;;;;;23.05;100.00;101223.59;4974884;28;20700;-80
2023/06/24 07:24:06;;;;;;;3.13;1.38;;;;;;;22.98;100.00;101164.41;4958326;28;20227;-80
2023/06/24 07:26:33;;;;;;;2.90;1.55;;;;;;;22.68;100.00;101104.16;4969580;28;20238;-80
2023/06/24 07:29:00;;;;;;;21.75;6.07;;;;;;;22.65;100.00;101085.38;4978471;28;20219;-79
2023/06/24 07:31:35;;;;;;;1.40;1.00;;;;;;;22.93;100.00;101082.75;4964197;28;20223;-88
2023/06/24 07:34:03;;;;;;;22.70;5.95;;;;;;;22.79;100.00;101040.94;4960719;28;20248;-80
2023/06/24 07:36:30;;;;;;;1.48;1.00;;;;;;;23.32;100.00;101085.09;4977389;28;20232;-79
2023/06/24 07:38:56;;;;;;;22.33;6.20;;;;;;;22.71;100.00;101006.13;4952773;28;20225;-83
2023/06/24 07:41:23;;;;;;;1.60;0.93;;;;;;;22.99;100.00;101043.91;4971904;28;20235;-78
2023/06/24 07:43:50;;;;;;;15.73;5.00;;;;;;;23.23;100.00;101093.50;4968108;28;20220;-81
2023/06/24 07:46:17;;;;;;;1.92;1.13;;;;;;;23.91;100.00;101153.31;4962751;28;20242;-79
2023/06/24 07:48:44;;;;;;;3.55;1.58;;;;;;;23.79;100.00;101040.31;4961865;28;20238;-80
2023/06/24 07:51:11;;;;;;;1.27;0.80;;;;;;;24.18;100.00;101034.38;4981307;28;20251;-84
2023/06/24 07:53:38;;;;;;;1.65;1.25;;;;;;;24.13;100.00;100994.00;4973319;28;20665;-81
2023/06/24 07:56:04;;;;;;;8.18;3.10;;;;;;;23.72;100.00;100884.84;4968682;28;20417;-80
2023/06/24 07:58:31;;;;;;;3.28;1.90;;;;;;;23.93;100.00;100875.03;4968485;28;20712;-82
2023/06/24 08:00:58;;;;;;;30.05;7.82;;;;;;;24.73;100.00;100954.72;4965501;28;20229;-82
2023/06/24 08:03:28;;;;;;;2.38;1.27;;;;;;;24.96;100.00;100937.53;4956687;28;20300;-82
2023/06/24 08:05:56;;;;;;;64.15;20.65;;;;;;;25.50;100.00;100919.84;4918228;28;20271;-86
2023/06/24 08:08:23;;;;;;;1.88;1.10;;;;;;;25.06;100.00;100881.22;4957648;28;20231;-81
2023/06/24 08:10:50;;;;;;;24.40;7.13;;;;;;;24.83;100.00;100782.09;4960201;28;20232;-86
2023/06/24 08:15:43;;;;;;;1.57;0.83;;;;;;;25.41;100.00;100766.81;4989843;23;20629;-78
2023/06/24 08:18:10;;;;;;;2.13;1.30;;;;;;;25.92;100.00;100764.41;4978052;28;20230;-80
2023/06/24 08:20:37;;;;;;;2.17;1.17;;;;;;;25.75;100.00;100733.59;4994694;28;20239;-78
2023/06/24 08:23:04;;;;;;;15.95;4.05;;;;;;;25.53;100.00;100663.31;4973992;28;20717;-78
2023/06/24 08:25:31;;;;;;;2.33;1.52;;;;;;;26.26;100.00;100720.25;4983626;28;20238;-79
2023/06/24 08:27:57;;;;;;;19.67;5.45;;;;;;;25.74;100.00;100637.03;4990925;28;20226;-77
2023/06/24 08:30:24;;;;;;;1.70;1.00;;;;;;;26.10;100.00;100595.47;4998170;28;20231;-83
2023/06/24 08:32:51;;;;;;;11.00;3.30;;;;;;;26.06;100.00;100605.59;4993287;28;20233;-79
2023/06/24 08:35:18;;;;;;;1.80;1.00;;;;;;;25.73;100.00;100502.53;4994797;28;20747;-78
2023/06/24 08:37:46;;;;;;;1.85;1.10;;;;;;;25.71;100.00;100536.09;4995993;28;20219;-83
2023/06/24 08:40:13;;;;;;;1.27;0.80;;;;;;;26.30;100.00;100583.56;4994855;28;20231;-79
2023/06/24 08:42:39;;;;;;;2.22;1.17;;;;;;;26.91;98.21;100564.81;4998318;28;20258;-78
2023/06/24 08:45:07;;;;;;;8.90;2.65;;;;;;;26.55;99.71;100518.06;4990103;28;20232;-83
2023/06/24 08:47:34;;;;;;;2.30;1.55;;;;;;;27.13;96.19;100537.34;4997280;28;20227;-81
2023/06/24 08:50:04;;;;;;;21.50;5.85;;;;;;;27.03;88.93;100424.84;4976711;28;20238;-79
2023/06/24 08:52:38;;;;;;;1.95;1.17;;;;;;;27.62;100.00;100554.44;4996570;28;20253;-79
2023/06/24 08:55:07;;;;;;;8.63;2.95;;;;;;;27.41;94.48;100447.03;4963567;28;20242;-79
2023/06/24 08:57:34;;;;;;;2.95;1.35;;;;;;;27.72;96.95;100484.97;4968188;28;20227;-78
2023/06/24 09:00:01;;;;;;;13.75;4.10;;;;;;;27.31;91.16;100367.97;4983143;28;20235;-78
2023/06/24 09:02:28;;;;;;;2.60;1.38;;;;;;;27.51;92.87;100379.44;4987099;28;20270;-79
2023/06/24 09:04:55;;;;;;;11.82;3.65;;;;;;;28.56;94.60;100486.97;4988640;28;20239;-79
2023/06/24 09:07:28;;;;;;;5.78;2.50;;;;;;;28.75;84.65;100388.69;4994561;28;20235;-78
2023/06/24 09:09:55;;;;;;;1.20;1.15;;;;;;;28.98;86.15;100378.03;4985190;28;20227;-80
2023/06/24 09:12:25;;;;;;;0.10;0.10;;;;;;;28.14;82.53;100219.53;4997785;28;20223;-77
2023/06/24 09:14:52;;;;;;;0.05;0.00;;;;;;;27.84;88.31;100219.72;4990132;28;20226;-77
2023/06/24 09:17:22;;;;;;;0.00;0.00;;;;;;;27.27;85.43;100126.56;4997715;28;20682;-82
2023/06/24 09:19:50;;;;;;;0.00;0.00;;;;;;;28.43;83.70;100222.16;4988656;28;20246;-90
2023/06/24 09:22:18;;;;;;;0.10;0.10;;;;;;;29.02;74.78;100168.19;4991792;28;20227;-84
2023/06/24 09:24:46;;;;;;;0.10;0.10;;;;;;;27.63;75.18;99988.38;5000437;28;20602;-87
2023/06/24 09:27:21;;;;;;;0.00;0.00;;;;;;;27.19;71.47;99871.88;4989018;28;20326;-79
2023/06/24 09:29:49;;;;;;;0.00;0.00;;;;;;;27.75;72.68;99947.75;4989229;28;20249;-86
2023/06/24 09:32:15;;;;;;;0.60;0.60;;;;;;;27.71;72.56;99925.38;4988984;28;20243;-82
2023/06/24 09:34:43;;;;;;;0.00;0.00;;;;;;;27.69;69.54;99879.28;4980755;28;20227;-80
2023/06/24 09:37:10;;;;;;;0.00;0.00;;;;;;;28.06;75.51;99969.09;4980329;28;20261;-83
2023/06/24 09:39:39;;;;;;;0.10;0.10;;;;;;;28.70;80.26;100072.47;4997917;28;20227;-79
2023/06/24 09:42:07;;;;;;;2.45;1.20;;;;;;;29.35;75.97;100100.38;4993122;28;20251;-78
2023/06/24 09:44:34;;;;;;;1.85;1.17;;;;;;;28.81;64.70;99874.78;4994546;28;20259;-81
2023/06/24 09:47:01;;;;;;;3.00;1.52;;;;;;;28.36;72.71;99896.22;4991238;28;20228;-80
2023/06/24 09:49:29;;;;;;;0.30;0.22;;;;;;;28.54;69.09;99872.22;5002329;28;20265;-79
2023/06/24 09:51:57;;;;;;;8.43;3.15;;;;;;;28.69;67.73;99848.47;4963269;28;20231;-81
2023/06/24 09:54:30;;;;;;;0.35;0.10;;;;;;;28.31;67.68;99792.34;4985866;28;20253;-81
2023/06/24 09:57:04;;;;;;;45.22;17.27;;;;;;;28.49;65.45;99765.63;4897250;28;20281;-79
2023/06/24 09:59:34;;;;;;;1.95;0.98;;;;;;;28.93;66.10;99818.56;4942906;28;20239;-79
2023/06/24 10:02:04;;;;;;;13.55;4.80;;;;;;;28.89;61.77;99733.56;4953831;28;20236;-80
2023/06/24 10:04:31;;;;;;;0.50;0.40;;;;;;;29.19;62.46;99773.00;4976134;28;20326;-81
2023/06/24 10:06:59;;;;;;;3.30;1.80;;;;;;;29.70;62.39;99811.59;4963727;28;20758;-83
2023/06/24 10:09:26;;;;;;;0.77;0.77;;;;;;;29.10;62.73;99698.34;4968026;28;20263;-81
2023/06/24 10:11:53;;;;;;;10.95;4.18;;;;;;;29.56;67.28;99809.09;4984003;28;20234;-80
2023/06/24 10:14:20;;;;;;;0.75;0.70;;;;;;;29.02;63.46;99659.97;4987454;28;20230;-80
2023/06/24 10:16:48;;;;;;;4.25;1.73;;;;;;;29.68;66.24;99791.78;4962297;28;20254;-82
2023/06/24 10:19:19;;;;;;;0.98;0.60;;;;;;;29.08;58.98;99585.97;4996232;28;20231;-82
2023/06/24 10:21:47;;;;;;;0.35;0.35;;;;;;;29.51;62.74;99692.31;4992827;28;20325;-80
2023/06/24 10:24:31;;;;;;;0.52;0.40;;;;;;;29.24;61.06;99626.44;4979835;28;20240;-81
2023/06/24 10:27:06;;;;;;;13.52;4.88;;;;;;;29.18;64.86;99635.09;4985808;28;20235;-80
2023/06/24 10:29:39;;;;;;;1.20;0.77;;;;;;;30.51;66.46;99830.44;4983053;28;20250;-81
2023/06/24 10:32:10;;;;;;;1.75;1.33;;;;;;;29.49;62.75;99628.06;4977730;28;20285;-80
2023/06/24 10:34:49;;;;;;;1.40;0.90;;;;;;;30.53;58.45;99699.31;4974831;28;20235;-80
2023/06/24 10:37:31;;;;;;;1.42;0.80;;;;;;;29.36;63.47;99592.75;4984953;28;20269;-79
2023/06/24 10:40:02;;;;;;;19.73;6.50;;;;;;;30.03;60.06;99619.94;4904581;28;20234;-84
2023/06/24 10:42:39;;;;;;;1.15;0.70;;;;;;;29.87;61.21;99620.28;4998861;28;20301;-83
2023/06/24 10:45:09;;;;;;;20.98;6.72;;;;;;;30.48;57.79;99631.50;4985056;28;20320;-79
2023/06/24 10:47:38;;;;;;;1.50;1.00;;;;;;;29.65;59.22;99495.00;5000809;28;20738;-80
2023/06/24 10:50:07;;;;;;;11.77;3.65;;;;;;;30.85;60.14;99689.25;4958625;28;20696;-82
2023/06/24 10:52:44;;;;;;;2.90;1.42;;;;;;;31.09;57.08;99634.34;4994017;28;20227;-82
2023/06/24 10:55:14;;;;;;;7.65;2.63;;;;;;;30.92;56.60;99566.72;4992283;28;20726;-80
2023/06/24 10:57:40;;;;;;;2.55;1.20;;;;;;;29.41;54.91;99317.28;5000218;28;20237;-81
2023/06/24 11:00:08;;;;;;;10.18;4.03;;;;;;;31.04;57.42;99594.81;4962603;28;20227;-80
2023/06/24 11:02:37;;;;;;;2.20;1.10;;;;;;;31.01;50.69;99420.31;4979113;28;20223;-79
2023/06/24 11:05:18;;;;;;;4.82;2.20;;;;;;;31.50;54.65;99547.84;4963358;28;20701;-79
2023/06/24 11:07:45;;;;;;;4.50;1.98;;;;;;;31.48;54.88;99520.69;4993602;28;20230;-79
2023/06/24 11:10:14;;;;;;;34.15;8.18;;;;;;;32.02;50.59;99483.75;4970217;28;20877;-79
2023/06/24 11:12:42;;;;;;;6.28;2.35;;;;;;;30.39;50.39;99241.34;4988588;28;20233;-80
2023/06/24 11:15:10;;;;;;;12.25;4.05;;;;;;;31.75;53.29;99500.88;4976846;28;20227;-79
2023/06/24 11:17:38;;;;;;;6.13;2.28;;;;;;;32.65;47.35;99461.31;4977078;28;20274;-80
2023/06/24 11:20:13;;;;;;;15.95;4.82;;;;;;;31.45;49.98;99317.91;4994437;28;20231;-79
2023/06/24 11:22:41;;;;;;;6.05;2.25;;;;;;;31.13;51.06;99302.63;4998353;28;20624;-79
2023/06/24 11:25:24;;;;;;;11.88;3.97;;;;;;;31.72;50.94;99377.28;4994847;28;20231;-80